Capitol Logistics 3272


KMIA
Miami International Airport
Miami, Florida, US
KTLH
Tallahassee International Airport
Tallahassee, Florida, US

Activity Log

Date Flight Route Aircraft Duration
06/08/2019 CPX672 WINCO2 WINCO CHRRI SMELZ PATOY JAWJA SF34 1h 38m

Route Details

Aircraft Information
Primary: Saab 340AF
Backup: Not Available
Route Data
Distance: 350nm
Sched. Duration: 2h 00m
Avg. Duration: 1h 38m (-61m)
Times Flown: 1
Recm'd Route: WINCO2 WINCO CHRRI SMELZ PATOY JAWJA
Planned Altitude: 16,000ft
Origin Wx: KMIA 200253Z 07010G14KT 10SM SCT028 BKN049 OVC180 27/24 A2994 RMK AO2 LTG DSNT N RAB14E25 SLP140 CB DSNT N MOV W P0001 60001 T02720239 53005
Dest. Wx: KTLH 200253Z 07010KT 10SM CLR 24/18 A3010 RMK AO2 SLP192 T02390178 53009
Notes:

Financial History
Total Freight: 5,950lbs
Average Load: 5,950lbs/flt
Fuel Used: 1,627lbs
Avg. Fuel Used: 1,627lbs/flt
Fuel Expense: $2,001
Avg. Fuel Expense: $2,001
Avg. Fuel Cost: $1.23/lbs
Total Gross Income: $6,664
Pilot Pay: $149
Total Expenses: $772
Total Revenue: $3,513
Average Revenue: $6,664.00